AirNav   Jet Aviation Boston
 
 304 users online  

L70 Agua Dulce Airport
Agua Dulce, California, USA

GOING TO AGUA DULCE?


FAA INFORMATION EFFECTIVE 29 MARCH 2018

Location

FAA Identifier: L70
Lat/Long: 34-30-09.2500N / 118-18-52.7200W
34-30.154167N / 118-18.878667W
34.5025694 / -118.3146444
(estimated)
Elevation: 2660 ft. / 811 m (estimated)
Variation: 14E (1985)
From city: 2 miles E of AGUA DULCE, CA
Time zone: UTC -7 (UTC -8 during Standard Time)
Zip code: 91350

Airport Operations

Airport use: Open to the public
Activation date: 10/1958
Control tower: no
ARTCC: LOS ANGELES CENTER
FSS: RIVERSIDE FLIGHT SERVICE STATION
NOTAMs facility: RAL (NOTAM-D service available)
Attendance: 0800-1800
AIRPORT UNATNDD CHRISTMAS DAY; THANKSGIVING DAY AND NEW YEARS DAY.
Pattern altitude: 3660 ft. MSL
Wind indicator: yes
Segmented circle: yes

Airport Communications

CTAF/UNICOM: 122.8
WX ASOS at PMD (14 nm NE): PHONE 661-272-3798
WX ASOS at WJF (15 nm N): PHONE 661-949-2840
WX AWOS-3PT at WHP (15 nm S): 132.1 (818-899-9820)
WX ASOS at BUR (18 nm S): PHONE 818-841-1384
WX ASOS at VNY (20 nm SW): PHONE 818-904-9213

Nearby radio navigation aids

VOR radial/distance  VOR name  Freq  Var
PMDr223/14.6PALMDALE VORTAC114.5015E
LHSr115/16.9LAKE HUGHES VORTAC108.4015E
VNYr013/18.9VAN NUYS VOR/DME113.1015E
FIMr058/29.4FILLMORE VORTAC112.5015E
SMOr358/30.4SANTA MONICA VOR/DME110.8015E
GMNr108/32.5GORMAN VORTAC116.1016E
LAXr355/34.7LOS ANGELES VORTAC113.6015E
POMr299/36.5POMONA VORTAC110.4015E

 
NDB name  Hdg/Dist  Freq  Var  ID
EL MONTE316/28.635915EEMT . -- -

Airport Services

Fuel available: 100LL
SELF SERVICE
Parking: tiedowns
Bottled oxygen: NONE
Bulk oxygen: NONE

Runway Information

Runway 4/22

Dimensions: 4600 x 50 ft. / 1402 x 15 m
Surface: asphalt, in good condition
Gradient: SW
RUNWAY 4  RUNWAY 22
Latitude: 34-29.982167N34-30.445667N
Longitude: 118-19.154833W118-18.410333W
Elevation: 2639.5 ft.2552.5 ft.
Gradient: 1.0%1.9% UP
Traffic pattern: leftright
Displaced threshold: 580 ft.838 ft.
Markings: basic, in good conditionbasic, in good condition
Runway end identifier lights: nono
Obstructions: 15 ft. bldg, 240 ft. from runway, 85 ft. right of centerline, 2:1 slope to clear
RWY 04 +15 FT HANGER 140-160 FT FM EOR 80 FT RIGHT.
4 ft. fence, 200 ft. from runway, 35 ft. right of centerline
+4 FT FENCE 0 FT - 200 FT FROM EOR DIAGONALLY FROM 50 FT LEFT TO 35 FT RIGHT.

Airport Ownership and Management from official FAA records

Ownership: Privately-owned
Owner: LAND SEA AIR LEASING CORPORATION
15853 OLDEN STREET, P.O. BOX 9203
SYLMAR, CA 91392
Phone (661) 268-8835
Manager: JOHN BONNER
33638 AGUA DULCE CANYON ROAD, P. O. BOX 9203
AGUA DULCE, CA 91390
Phone (661) 268-8835
DOUG ABNEY, ASST ARPT OPNS - PHONE 661-268-8835 CELL 661-268-8835.

Airport Operational Statistics

Aircraft based on the field: 33
Single engine airplanes: 27
Multi engine airplanes: 2
Helicopters: 3
Gliders airplanes: 1
    
Aircraft operations: avg 60/month *
50% transient general aviation
50% local general aviation
* for 12-month period ending 31 December 2016

Additional Remarks

RIDGE SOUTH OF AIRPORT PARALLEL TO RY VIOLATES 7:1 TRANSITIONAL SURFACE.
FORMATION ARRIVALS AND DEPARTURES PROHIBITED.
NO AEROBATICS PERMITTED.
AIRPORT CLSD SUNSET TO SUNRISE. ALL NIGHT OPERATIONS PROHIBITED BY LOCAL RESTRICTIONS.
ACTVT MIKE 5 TIMES ON CTAF FREQ FOR ARPT WX.
10-25 FT WIDE DITCH AT 170 FT ALONG SE EDGE OF RY.
TGL NOT PERMITTED.
AVOID FLYING WITHIN 1000 FT OF SCHOOL APRXLY ONE MILE SOUTHWEST. RY 04 DEP AVOID FLYING OVER HOMES 2,000 FT NE OF RY END.

Instrument Procedures

There are no published instrument procedures at L70.

Some nearby airports with instrument procedures:

KPMD - Palmdale USAF Plant 42 Airport (14 nm NE)
KWJF - General Wm J Fox Airfield (15 nm N)
KWHP - Whiteman Airport (15 nm S)
KBUR - Bob Hope Airport (18 nm S)
KVNY - Van Nuys Airport (20 nm SW)
 
Loc | Ops | Rwys | IFR | FBO | Links
Com | Nav | Svcs | Stats | Notes

AirNav Hotels Sweepstakes
 
Area around L70 (Agua Dulce Airport)
 
Road maps at: MapQuest Bing Google
 
Aerial photo
WARNING: Photo may not be current or correct
Aerial photo of L70 (Agua Dulce Airport)
Photo by Mark Robinson & eatsleepfly.com
Photo taken 08-Mar-2014
looking northwest.

Do you have a better or more recent aerial photo of Agua Dulce Airport that you would like to share? If so, please send us your photo.

 
Sectional chart

 
Airport distance calculator
Flying to Agua Dulce Airport? Find the distance to fly.

From to L70

Sunrise and sunset
Times for 23-Apr-2018
 Local
(UTC-7)
 Zulu
(UTC)
Morning civil twilight05:4712:47
Sunrise06:1313:13
Sunset19:3002:30
Evening civil twilight19:5702:57

Current date and time
Zulu (UTC)  23-Apr-2018 08:36:59
Local (UTC-7)  23-Apr-2018 01:36:59
 
METAR
KWJF 
14nm N 
230756Z AUTO 00000KT 10SM CLR 18/01 A2998 RMK AO2 SLP134 T01780011 403110094
KPMD 
14nm NE 
230753Z AUTO 23009KT 10SM CLR 19/01 A2999 RMK AO2 SLP129 T01940006 403060111
KWHP 
16nm S 
230250Z 15003KT 10SM SKC 25/07 A2994 RMK LAST
KBUR 
18nm S 
230753Z 09003KT 10SM CLR 16/13 A2995 RMK AO2 SLP130 T01610133 402940144
KVNY 
19nm SW 
230751Z AUTO 00000KT 10SM CLR 17/12 A2995 RMK AO2 SLP134 T01670117 403220133
KSDB 
25nm NW 
230753Z AUTO 33014KT 10SM CLR 16/03 A3009 RMK AO2 SLP140 T01560028 402390128 $
KCQT 
27nm S 
230747Z AUTO 00000KT 4SM BR CLR 15/13 A2995 RMK AO2 SLP141 T01500133 402610139
TAF
KWJF 
14nm N 
230540Z 2306/2406 24008KT P6SM SKC FM232000 23015G25KT P6SM SKC FM240100 24018KT P6SM SKC FM240500 24012KT P6SM SKC
KPMD 
14nm NE 
230540Z 2306/2406 22008KT P6SM SKC FM231700 25010KT P6SM SKC FM232100 24015KT P6SM SKC FM240200 24010KT P6SM SKC
KBUR 
18nm S 
230540Z 2306/2406 VRB03KT P6SM SKC FM232000 17008KT P6SM SKC FM240400 VRB03KT P6SM SKC
KVNY 
19nm SW 
230540Z 2306/2406 VRB03KT P6SM SKC FM232100 14008KT P6SM SKC FM240300 VRB03KT P6SM SKC
NOTAMs
Click for the latest NOTAMs
NOTAMs are issued by the DoD/FAA and will open in a separate window not controlled by AirNav.

 

 
 

FBO, Fuel Providers, and Aircraft Ground Support

  
 Business Name 
 
 Contact 
 
 Services / Description 
 
Fuel Prices
 
Comments
  
Agua Dulce Airport 661-268-0797
[web site]
[email]
Airport management, Aviation fuel, Aircraft parking (ramp or tiedown), Rental cars, Pilots lounge / snooze room, Restrooms

More info about Agua Dulce Airport
Avfuel
100LL
SS $5.58 
 Updated 14-Apr-2018
 
   write
SS=Self service
Update Fuel Prices
 

Would you like to see your business listed on this page?

 If your business provides an interesting product or service to pilots, flight crews, aircraft, or users of the Agua Dulce Airport, you should consider listing it here.  To start the listing process, click on the button below
 
Add a business
 

Other Pages about Agua Dulce Airport

www.l70airport.com
 
Update a link
 
Copyright © AirNav, LLC. All rights reserved. Privacy Policy  Contact